createdAt,value
2023-03-17T00:02:45.148Z,2368.00
2023-03-17T00:06:45.136Z,2603.00
2023-03-17T00:10:45.415Z,2249.00
2023-03-17T00:14:45.291Z,2608.00
2023-03-17T00:18:45.416Z,2410.00
2023-03-17T00:22:45.599Z,2233.00
2023-03-17T00:26:45.672Z,2264.00
2023-03-17T00:30:45.785Z,2861.00
2023-03-17T00:34:45.961Z,2930.00
2023-03-17T00:38:46.021Z,2168.00
2023-03-17T00:42:46.192Z,2381.00
2023-03-17T00:46:46.487Z,2503.00
2023-03-17T00:50:46.436Z,2967.00
2023-03-17T00:54:46.536Z,2038.00
2023-03-17T00:58:46.876Z,2520.00
2023-03-17T01:02:46.862Z,1828.00
2023-03-17T01:06:47.074Z,2735.00
2023-03-17T01:10:47.044Z,2885.00
2023-03-17T01:14:47.153Z,1931.00
2023-03-17T01:18:47.252Z,2410.00
2023-03-17T01:22:47.322Z,1794.00
2023-03-17T01:26:47.671Z,2044.00
2023-03-17T01:30:47.868Z,1951.00
2023-03-17T01:34:47.758Z,2499.00
2023-03-17T01:38:47.818Z,2079.00
2023-03-17T01:42:47.939Z,1626.00
2023-03-17T01:46:48.435Z,2084.00
2023-03-17T01:50:48.377Z,2059.00
2023-03-17T01:54:49.272Z,1840.00
2023-03-17T01:58:48.449Z,2074.00
2023-03-17T02:02:48.576Z,2489.00
2023-03-17T02:06:57.468Z,2595.00
2023-03-17T02:10:49.625Z,1956.00
2023-03-17T02:14:48.630Z,2378.00
2023-03-17T02:18:48.620Z,2121.00
2023-03-17T02:22:48.765Z,1514.00
2023-03-17T02:26:49.150Z,1646.00
2023-03-17T02:30:49.345Z,1444.00
2023-03-17T02:34:49.237Z,1181.00
2023-03-17T02:38:49.405Z,2118.00
2023-03-17T02:42:49.441Z,1324.00
2023-03-17T02:46:49.544Z,1705.00
2023-03-17T02:50:49.916Z,2229.00
2023-03-17T02:54:50.084Z,2366.00
2023-03-17T02:58:49.938Z,2253.00
2023-03-17T03:02:50.040Z,1864.00
2023-03-17T03:06:50.169Z,2270.00
2023-03-17T03:10:50.295Z,2585.00
2023-03-17T03:14:50.325Z,1684.00
2023-03-17T03:18:50.381Z,1942.00
2023-03-17T03:22:50.564Z,1859.00
2023-03-17T03:26:50.700Z,1875.00
2023-03-17T03:30:51.031Z,2092.00
2023-03-17T03:34:51.090Z,2868.00
2023-03-17T03:38:51.161Z,2542.00
2023-03-17T03:42:51.076Z,1584.00
2023-03-17T03:46:51.577Z,1647.00
2023-03-17T03:50:51.758Z,1993.00
2023-03-17T03:54:51.370Z,2394.00
2023-03-17T03:58:51.663Z,1526.00
2023-03-17T04:02:51.930Z,2414.00
2023-03-17T04:06:52.096Z,2165.00
2023-03-17T04:10:52.094Z,1339.00
2023-03-17T04:14:52.302Z,1946.00
2023-03-17T04:18:52.259Z,2487.00
2023-03-17T04:22:52.317Z,2558.00
2023-03-17T04:26:52.369Z,1740.00
2023-03-17T04:30:52.512Z,1586.00
2023-03-17T04:34:52.602Z,2135.00
2023-03-17T04:38:52.761Z,1786.00
2023-03-17T04:42:52.870Z,1980.00
2023-03-17T04:46:53.041Z,2213.00
2023-03-17T04:50:53.087Z,1820.00
2023-03-17T04:54:53.485Z,1510.00
2023-03-17T04:58:53.502Z,2056.00
2023-03-17T05:02:53.437Z,1725.00
2023-03-17T05:06:53.673Z,2385.00
2023-03-17T05:10:53.783Z,1346.00
2023-03-17T05:14:53.866Z,1412.00
2023-03-17T05:18:53.919Z,1771.00
2023-03-17T05:22:54.108Z,1700.00
2023-03-17T05:26:54.139Z,2219.00
2023-03-17T05:30:54.412Z,1951.00
2023-03-17T05:34:54.445Z,2683.00
2023-03-17T05:38:54.555Z,3174.00
2023-03-17T05:42:54.684Z,2068.00
2023-03-17T05:46:54.772Z,2448.00
2023-03-17T05:50:54.935Z,2433.00
2023-03-17T05:54:55.070Z,2723.00
2023-03-17T05:58:55.204Z,2698.00
2023-03-17T06:02:55.301Z,2234.00
2023-03-17T06:06:55.394Z,2419.00
2023-03-17T06:10:55.472Z,2197.00
2023-03-17T06:14:55.611Z,3349.00
2023-03-17T06:18:55.718Z,2773.00
2023-03-17T06:23:04.512Z,2606.00
2023-03-17T06:26:56.789Z,2709.00
2023-03-17T06:30:55.772Z,3541.00
2023-03-17T06:34:55.796Z,3060.00
2023-03-17T06:38:56.048Z,3292.00
2023-03-17T06:42:56.065Z,3154.00
2023-03-17T06:46:56.216Z,4855.00
2023-03-17T06:50:56.527Z,4899.00
2023-03-17T06:54:56.489Z,3908.00
2023-03-17T06:58:56.540Z,4188.00
2023-03-17T07:02:56.545Z,4802.00
2023-03-17T07:06:56.762Z,5303.00
2023-03-17T07:10:57.012Z,4321.00
2023-03-17T07:14:57.253Z,2396.00
2023-03-17T07:18:57.186Z,3985.00
2023-03-17T07:22:57.267Z,2510.00
2023-03-17T07:26:57.325Z,4117.00
2023-03-17T07:30:57.422Z,2201.00
2023-03-17T07:34:57.737Z,2987.00
2023-03-17T07:38:58.017Z,3291.00
2023-03-17T07:42:57.781Z,2861.00
2023-03-17T07:46:58.649Z,3148.00
2023-03-17T07:51:12.327Z,4554.00
